sensor_id;sensor_type;location;lat;lon;timestamp;temperature;humidity
5962;DHT22;3007;50.770;0.250;2022-08-20T00:00:30;15.40;99.90
5962;DHT22;3007;50.770;0.250;2022-08-20T00:02:59;15.40;99.90
5962;DHT22;3007;50.770;0.250;2022-08-20T00:05:32;15.30;99.90
5962;DHT22;3007;50.770;0.250;2022-08-20T00:08:00;15.40;99.90
5962;DHT22;3007;50.770;0.250;2022-08-20T00:10:31;15.30;99.90
5962;DHT22;3007;50.770;0.250;2022-08-20T00:12:59;15.40;99.90
5962;DHT22;3007;50.770;0.250;2022-08-20T00:15:29;15.40;99.90
5962;DHT22;3007;50.770;0.250;2022-08-20T00:17:57;15.40;99.90
5962;DHT22;3007;50.770;0.250;2022-08-20T00:20:28;15.40;99.90
5962;DHT22;3007;50.770;0.250;2022-08-20T00:22:56;15.30;99.90
5962;DHT22;3007;50.770;0.250;2022-08-20T00:25:27;15.30;99.90
5962;DHT22;3007;50.770;0.250;2022-08-20T00:27:57;15.30;99.90
5962;DHT22;3007;50.770;0.250;2022-08-20T00:30:25;15.30;99.90
5962;DHT22;3007;50.770;0.250;2022-08-20T00:32:55;15.30;99.90
5962;DHT22;3007;50.770;0.250;2022-08-20T00:35:25;15.30;99.90
5962;DHT22;3007;50.770;0.250;2022-08-20T00:37:52;15.30;99.90
5962;DHT22;3007;50.770;0.250;2022-08-20T00:40:22;15.30;99.90
5962;DHT22;3007;50.770;0.250;2022-08-20T00:42:51;15.20;99.90
5962;DHT22;3007;50.770;0.250;2022-08-20T00:45:20;15.30;99.90
5962;DHT22;3007;50.770;0.250;2022-08-20T00:47:47;15.20;99.90
5962;DHT22;3007;50.770;0.250;2022-08-20T00:50:16;15.20;99.90
5962;DHT22;3007;50.770;0.250;2022-08-20T00:52:47;15.30;99.90
5962;DHT22;3007;50.770;0.250;2022-08-20T00:55:15;15.30;99.90
5962;DHT22;3007;50.770;0.250;2022-08-20T00:57:46;15.30;99.90
5962;DHT22;3007;50.770;0.250;2022-08-20T01:00:18;15.30;99.90
5962;DHT22;3007;50.770;0.250;2022-08-20T01:02:47;15.20;99.90
5962;DHT22;3007;50.770;0.250;2022-08-20T01:05:15;15.30;99.90
5962;DHT22;3007;50.770;0.250;2022-08-20T01:07:43;15.30;99.90
5962;DHT22;3007;50.770;0.250;2022-08-20T01:10:14;15.20;99.90
5962;DHT22;3007;50.770;0.250;2022-08-20T01:12:44;15.20;99.90
5962;DHT22;3007;50.770;0.250;2022-08-20T01:15:13;15.20;99.90
5962;DHT22;3007;50.770;0.250;2022-08-20T01:17:43;15.10;99.90
5962;DHT22;3007;50.770;0.250;2022-08-20T01:20:15;15.10;99.90
5962;DHT22;3007;50.770;0.250;2022-08-20T01:22:47;15.10;99.90
5962;DHT22;3007;50.770;0.250;2022-08-20T01:25:43;15.10;99.90
5962;DHT22;3007;50.770;0.250;2022-08-20T01:28:12;15.10;99.90
5962;DHT22;3007;50.770;0.250;2022-08-20T01:30:40;15.20;99.90
5962;DHT22;3007;50.770;0.250;2022-08-20T01:33:08;15.20;99.90
5962;DHT22;3007;50.770;0.250;2022-08-20T01:35:36;15.20;99.90
5962;DHT22;3007;50.770;0.250;2022-08-20T01:38:04;15.30;99.90
5962;DHT22;3007;50.770;0.250;2022-08-20T01:43:35;15.30;99.90
5962;DHT22;3007;50.770;0.250;2022-08-20T01:46:03;15.40;99.90
5962;DHT22;3007;50.770;0.250;2022-08-20T01:48:30;15.30;99.90
5962;DHT22;3007;50.770;0.250;2022-08-20T01:51:06;15.40;99.90
5962;DHT22;3007;50.770;0.250;2022-08-20T01:53:37;15.40;99.90
5962;DHT22;3007;50.770;0.250;2022-08-20T01:56:06;15.40;99.90
5962;DHT22;3007;50.770;0.250;2022-08-20T01:58:39;15.40;99.90
5962;DHT22;3007;50.770;0.250;2022-08-20T02:01:06;15.30;99.90
5962;DHT22;3007;50.770;0.250;2022-08-20T02:03:33;15.30;99.90
5962;DHT22;3007;50.770;0.250;2022-08-20T02:06:00;15.00;99.90
5962;DHT22;3007;50.770;0.250;2022-08-20T02:08:28;15.00;99.90
5962;DHT22;3007;50.770;0.250;2022-08-20T02:10:57;15.00;99.90
5962;DHT22;3007;50.770;0.250;2022-08-20T02:13:24;14.90;99.90
5962;DHT22;3007;50.770;0.250;2022-08-20T02:15:52;14.90;99.90
5962;DHT22;3007;50.770;0.250;2022-08-20T02:18:19;14.80;99.90
5962;DHT22;3007;50.770;0.250;2022-08-20T02:20:47;14.80;99.90
5962;DHT22;3007;50.770;0.250;2022-08-20T02:23:15;14.80;99.90
5962;DHT22;3007;50.770;0.250;2022-08-20T02:25:44;14.70;99.90
5962;DHT22;3007;50.770;0.250;2022-08-20T02:28:15;14.70;99.90
5962;DHT22;3007;50.770;0.250;2022-08-20T02:30:45;14.70;99.90
5962;DHT22;3007;50.770;0.250;2022-08-20T02:33:15;14.60;99.90
5962;DHT22;3007;50.770;0.250;2022-08-20T02:35:45;14.60;99.90
5962;DHT22;3007;50.770;0.250;2022-08-20T02:38:13;14.50;99.90
5962;DHT22;3007;50.770;0.250;2022-08-20T02:40:41;14.50;99.90
5962;DHT22;3007;50.770;0.250;2022-08-20T02:43:10;14.50;99.90
5962;DHT22;3007;50.770;0.250;2022-08-20T02:45:39;14.50;99.90
5962;DHT22;3007;50.770;0.250;2022-08-20T02:48:10;14.40;99.90
5962;DHT22;3007;50.770;0.250;2022-08-20T02:50:42;14.40;99.90
5962;DHT22;3007;50.770;0.250;2022-08-20T02:53:09;14.40;99.90
5962;DHT22;3007;50.770;0.250;2022-08-20T02:55:37;14.40;99.90
5962;DHT22;3007;50.770;0.250;2022-08-20T02:58:04;14.30;99.90
5962;DHT22;3007;50.770;0.250;2022-08-20T03:00:32;14.20;99.90
5962;DHT22;3007;50.770;0.250;2022-08-20T03:02:59;14.20;99.90
5962;DHT22;3007;50.770;0.250;2022-08-20T03:05:26;14.10;99.90
5962;DHT22;3007;50.770;0.250;2022-08-20T03:07:55;14.00;99.90
5962;DHT22;3007;50.770;0.250;2022-08-20T03:10:23;14.00;99.90
5962;DHT22;3007;50.770;0.250;2022-08-20T03:12:51;13.90;99.90
5962;DHT22;3007;50.770;0.250;2022-08-20T03:15:18;13.80;99.90
5962;DHT22;3007;50.770;0.250;2022-08-20T03:17:48;13.80;99.90
5962;DHT22;3007;50.770;0.250;2022-08-20T03:20:15;13.80;99.90
5962;DHT22;3007;50.770;0.250;2022-08-20T03:22:42;13.70;99.90
5962;DHT22;3007;50.770;0.250;2022-08-20T03:25:11;13.80;99.90
5962;DHT22;3007;50.770;0.250;2022-08-20T03:27:38;13.70;99.90
5962;DHT22;3007;50.770;0.250;2022-08-20T03:30:08;13.70;99.90
5962;DHT22;3007;50.770;0.250;2022-08-20T03:32:36;13.70;99.90
5962;DHT22;3007;50.770;0.250;2022-08-20T03:35:04;13.70;99.90
5962;DHT22;3007;50.770;0.250;2022-08-20T03:37:33;13.70;99.90
5962;DHT22;3007;50.770;0.250;2022-08-20T03:40:01;13.70;99.90
5962;DHT22;3007;50.770;0.250;2022-08-20T03:42:31;13.70;99.90
5962;DHT22;3007;50.770;0.250;2022-08-20T03:44:58;13.60;99.90
5962;DHT22;3007;50.770;0.250;2022-08-20T03:47:25;13.60;99.90
5962;DHT22;3007;50.770;0.250;2022-08-20T03:49:57;13.60;99.90
5962;DHT22;3007;50.770;0.250;2022-08-20T03:52:24;13.60;99.90
5962;DHT22;3007;50.770;0.250;2022-08-20T03:54:51;13.50;99.90
5962;DHT22;3007;50.770;0.250;2022-08-20T03:57:18;13.50;99.90
5962;DHT22;3007;50.770;0.250;2022-08-20T03:59:46;13.50;99.90
5962;DHT22;3007;50.770;0.250;2022-08-20T04:02:13;13.40;99.90
5962;DHT22;3007;50.770;0.250;2022-08-20T04:04:40;13.40;99.90
5962;DHT22;3007;50.770;0.250;2022-08-20T04:07:09;13.40;99.90
5962;DHT22;3007;50.770;0.250;2022-08-20T04:09:36;13.40;99.90
5962;DHT22;3007;50.770;0.250;2022-08-20T04:12:04;13.30;99.90
5962;DHT22;3007;50.770;0.250;2022-08-20T04:14:31;13.30;99.90
5962;DHT22;3007;50.770;0.250;2022-08-20T04:17:05;13.30;99.90
5962;DHT22;3007;50.770;0.250;2022-08-20T04:19:33;13.20;99.90
5962;DHT22;3007;50.770;0.250;2022-08-20T04:22:01;13.20;99.90
5962;DHT22;3007;50.770;0.250;2022-08-20T04:24:28;13.20;99.90
5962;DHT22;3007;50.770;0.250;2022-08-20T04:26:55;13.10;99.90
5962;DHT22;3007;50.770;0.250;2022-08-20T04:29:22;13.10;99.90
5962;DHT22;3007;50.770;0.250;2022-08-20T04:31:50;13.10;99.90
5962;DHT22;3007;50.770;0.250;2022-08-20T04:34:18;13.10;99.90
5962;DHT22;3007;50.770;0.250;2022-08-20T04:36:46;13.10;99.90
5962;DHT22;3007;50.770;0.250;2022-08-20T04:39:14;13.10;99.90
5962;DHT22;3007;50.770;0.250;2022-08-20T04:41:43;13.10;99.90
5962;DHT22;3007;50.770;0.250;2022-08-20T04:44:10;13.00;99.90
5962;DHT22;3007;50.770;0.250;2022-08-20T04:46:38;13.00;99.90
5962;DHT22;3007;50.770;0.250;2022-08-20T04:49:05;13.00;99.90
5962;DHT22;3007;50.770;0.250;2022-08-20T04:51:33;13.00;99.90
5962;DHT22;3007;50.770;0.250;2022-08-20T04:54:00;13.00;99.90
5962;DHT22;3007;50.770;0.250;2022-08-20T04:56:31;13.00;99.90
5962;DHT22;3007;50.770;0.250;2022-08-20T04:59:00;13.00;99.90
5962;DHT22;3007;50.770;0.250;2022-08-20T05:01:27;13.00;99.90
5962;DHT22;3007;50.770;0.250;2022-08-20T05:03:55;13.10;99.90
5962;DHT22;3007;50.770;0.250;2022-08-20T05:06:25;13.20;99.90
5962;DHT22;3007;50.770;0.250;2022-08-20T05:08:56;13.20;99.90
5962;DHT22;3007;50.770;0.250;2022-08-20T05:11:24;13.30;99.90
5962;DHT22;3007;50.770;0.250;2022-08-20T05:13:50;13.40;99.90
5962;DHT22;3007;50.770;0.250;2022-08-20T05:16:18;13.50;99.90
5962;DHT22;3007;50.770;0.250;2022-08-20T05:18:45;13.70;99.90
5962;DHT22;3007;50.770;0.250;2022-08-20T05:21:12;14.10;99.90
5962;DHT22;3007;50.770;0.250;2022-08-20T05:23:39;14.40;99.90
5962;DHT22;3007;50.770;0.250;2022-08-20T05:26:09;14.80;99.90
5962;DHT22;3007;50.770;0.250;2022-08-20T05:28:38;15.20;99.90
5962;DHT22;3007;50.770;0.250;2022-08-20T05:31:06;15.70;99.90
5962;DHT22;3007;50.770;0.250;2022-08-20T05:33:35;16.10;99.90
5962;DHT22;3007;50.770;0.250;2022-08-20T05:36:04;16.60;99.90
5962;DHT22;3007;50.770;0.250;2022-08-20T05:38:34;16.90;99.90
5962;DHT22;3007;50.770;0.250;2022-08-20T05:41:01;17.10;99.90
5962;DHT22;3007;50.770;0.250;2022-08-20T05:43:29;17.10;99.90
5962;DHT22;3007;50.770;0.250;2022-08-20T05:45:58;17.00;99.90
5962;DHT22;3007;50.770;0.250;2022-08-20T05:48:25;17.00;99.90
5962;DHT22;3007;50.770;0.250;2022-08-20T05:50:55;17.00;99.90
5962;DHT22;3007;50.770;0.250;2022-08-20T05:53:24;17.00;99.90
5962;DHT22;3007;50.770;0.250;2022-08-20T05:55:51;17.20;99.90
5962;DHT22;3007;50.770;0.250;2022-08-20T05:58:21;17.30;99.90
5962;DHT22;3007;50.770;0.250;2022-08-20T06:00:51;17.40;99.90
5962;DHT22;3007;50.770;0.250;2022-08-20T06:03:18;17.60;99.90
5962;DHT22;3007;50.770;0.250;2022-08-20T06:06:04;17.70;99.90
5962;DHT22;3007;50.770;0.250;2022-08-20T06:08:31;17.80;99.90
5962;DHT22;3007;50.770;0.250;2022-08-20T06:10:58;18.00;99.90
5962;DHT22;3007;50.770;0.250;2022-08-20T06:13:25;18.40;99.90
5962;DHT22;3007;50.770;0.250;2022-08-20T06:15:55;19.10;99.90
5962;DHT22;3007;50.770;0.250;2022-08-20T06:18:22;19.70;99.90
5962;DHT22;3007;50.770;0.250;2022-08-20T06:20:49;20.20;99.90
5962;DHT22;3007;50.770;0.250;2022-08-20T06:23:16;20.60;99.90
5962;DHT22;3007;50.770;0.250;2022-08-20T06:25:44;21.10;99.90
5962;DHT22;3007;50.770;0.250;2022-08-20T06:28:15;21.50;99.90
5962;DHT22;3007;50.770;0.250;2022-08-20T06:30:42;21.80;99.90
5962;DHT22;3007;50.770;0.250;2022-08-20T06:33:10;21.90;40.30
5962;DHT22;3007;50.770;0.250;2022-08-20T06:35:37;22.10;48.90
5962;DHT22;3007;50.770;0.250;2022-08-20T06:38:04;22.40;58.10
5962;DHT22;3007;50.770;0.250;2022-08-20T06:40:31;22.70;18.90
5962;DHT22;3007;50.770;0.250;2022-08-20T06:42:58;22.80;19.00
5962;DHT22;3007;50.770;0.250;2022-08-20T06:45:28;23.00;19.40
5962;DHT22;3007;50.770;0.250;2022-08-20T06:47:58;23.20;1.00
5962;DHT22;3007;50.770;0.250;2022-08-20T06:50:29;23.50;13.90
5962;DHT22;3007;50.770;0.250;2022-08-20T06:52:56;23.70;1.00
5962;DHT22;3007;50.770;0.250;2022-08-20T06:55:24;24.00;1.00
5962;DHT22;3007;50.770;0.250;2022-08-20T06:57:56;24.20;1.00
5962;DHT22;3007;50.770;0.250;2022-08-20T07:00:24;24.40;1.00
5962;DHT22;3007;50.770;0.250;2022-08-20T07:02:51;24.50;1.00
5962;DHT22;3007;50.770;0.250;2022-08-20T07:05:18;24.50;1.00
5962;DHT22;3007;50.770;0.250;2022-08-20T07:07:47;24.20;1.00
5962;DHT22;3007;50.770;0.250;2022-08-20T07:10:16;23.90;1.00
5962;DHT22;3007;50.770;0.250;2022-08-20T07:12:44;23.60;1.00
5962;DHT22;3007;50.770;0.250;2022-08-20T07:15:14;23.40;1.00
5962;DHT22;3007;50.770;0.250;2022-08-20T07:17:41;23.20;1.00
5962;DHT22;3007;50.770;0.250;2022-08-20T07:20:11;22.90;1.00
5962;DHT22;3007;50.770;0.250;2022-08-20T07:22:38;22.60;1.00
5962;DHT22;3007;50.770;0.250;2022-08-20T07:25:10;22.50;1.00
5962;DHT22;3007;50.770;0.250;2022-08-20T07:27:39;22.30;1.00
5962;DHT22;3007;50.770;0.250;2022-08-20T07:30:08;22.20;1.00
5962;DHT22;3007;50.770;0.250;2022-08-20T07:32:52;22.10;1.00
5962;DHT22;3007;50.770;0.250;2022-08-20T07:35:20;22.10;1.00
5962;DHT22;3007;50.770;0.250;2022-08-20T07:37:50;22.10;1.00
5962;DHT22;3007;50.770;0.250;2022-08-20T07:40:23;22.10;1.00
5962;DHT22;3007;50.770;0.250;2022-08-20T07:42:52;22.20;1.00
5962;DHT22;3007;50.770;0.250;2022-08-20T07:45:20;22.10;1.00
5962;DHT22;3007;50.770;0.250;2022-08-20T07:47:50;22.00;1.00
5962;DHT22;3007;50.770;0.250;2022-08-20T07:50:19;22.00;8.40
5962;DHT22;3007;50.770;0.250;2022-08-20T07:52:47;22.00;1.00
5962;DHT22;3007;50.770;0.250;2022-08-20T07:55:17;21.90;1.00
5962;DHT22;3007;50.770;0.250;2022-08-20T07:57:50;21.80;1.00
5962;DHT22;3007;50.770;0.250;2022-08-20T08:00:18;21.80;1.00
5962;DHT22;3007;50.770;0.250;2022-08-20T08:02:45;21.80;12.50
5962;DHT22;3007;50.770;0.250;2022-08-20T08:05:13;21.70;9.60
5962;DHT22;3007;50.770;0.250;2022-08-20T08:07:40;21.70;19.80
5962;DHT22;3007;50.770;0.250;2022-08-20T08:10:11;21.80;28.40
5962;DHT22;3007;50.770;0.250;2022-08-20T08:12:45;21.90;21.70
5962;DHT22;3007;50.770;0.250;2022-08-20T08:15:16;21.90;25.00
5962;DHT22;3007;50.770;0.250;2022-08-20T08:17:45;22.00;15.60
5962;DHT22;3007;50.770;0.250;2022-08-20T08:20:14;22.00;4.40
5962;DHT22;3007;50.770;0.250;2022-08-20T08:22:41;21.90;1.00
5962;DHT22;3007;50.770;0.250;2022-08-20T08:25:09;21.90;2.20
5962;DHT22;3007;50.770;0.250;2022-08-20T08:27:37;21.80;11.60
5962;DHT22;3007;50.770;0.250;2022-08-20T08:30:05;21.80;1.00
5962;DHT22;3007;50.770;0.250;2022-08-20T08:32:36;21.70;5.30
5962;DHT22;3007;50.770;0.250;2022-08-20T08:35:23;21.70;19.70
5962;DHT22;3007;50.770;0.250;2022-08-20T08:37:50;21.80;19.20
5962;DHT22;3007;50.770;0.250;2022-08-20T08:40:18;21.80;12.90
5962;DHT22;3007;50.770;0.250;2022-08-20T08:42:48;21.80;13.20
5962;DHT22;3007;50.770;0.250;2022-08-20T08:45:23;21.80;1.00
5962;DHT22;3007;50.770;0.250;2022-08-20T08:47:52;21.70;1.00
5962;DHT22;3007;50.770;0.250;2022-08-20T08:50:22;21.70;5.30
5962;DHT22;3007;50.770;0.250;2022-08-20T08:52:51;21.70;1.00
5962;DHT22;3007;50.770;0.250;2022-08-20T08:55:20;21.70;2.10
5962;DHT22;3007;50.770;0.250;2022-08-20T08:57:48;21.80;3.30
5962;DHT22;3007;50.770;0.250;2022-08-20T09:00:17;21.80;1.00
5962;DHT22;3007;50.770;0.250;2022-08-20T09:02:56;21.80;1.00
5962;DHT22;3007;50.770;0.250;2022-08-20T09:05:30;21.90;1.00
5962;DHT22;3007;50.770;0.250;2022-08-20T09:08:00;21.90;1.00
5962;DHT22;3007;50.770;0.250;2022-08-20T09:10:28;22.00;1.00
5962;DHT22;3007;50.770;0.250;2022-08-20T09:12:55;21.90;1.00
5962;DHT22;3007;50.770;0.250;2022-08-20T09:15:22;21.90;1.00
5962;DHT22;3007;50.770;0.250;2022-08-20T09:17:49;21.80;1.00
5962;DHT22;3007;50.770;0.250;2022-08-20T09:20:17;21.80;1.00
5962;DHT22;3007;50.770;0.250;2022-08-20T09:22:44;21.80;1.00
5962;DHT22;3007;50.770;0.250;2022-08-20T09:25:11;21.70;1.00
5962;DHT22;3007;50.770;0.250;2022-08-20T09:27:38;21.80;1.00
5962;DHT22;3007;50.770;0.250;2022-08-20T09:30:06;21.80;1.00
5962;DHT22;3007;50.770;0.250;2022-08-20T09:32:37;21.90;1.00
5962;DHT22;3007;50.770;0.250;2022-08-20T09:35:04;22.00;1.00
5962;DHT22;3007;50.770;0.250;2022-08-20T09:37:33;22.20;1.00
5962;DHT22;3007;50.770;0.250;2022-08-20T09:40:00;22.30;1.00
5962;DHT22;3007;50.770;0.250;2022-08-20T09:42:28;22.40;1.00
5962;DHT22;3007;50.770;0.250;2022-08-20T09:44:56;22.50;1.00
5962;DHT22;3007;50.770;0.250;2022-08-20T09:47:24;22.70;1.00
5962;DHT22;3007;50.770;0.250;2022-08-20T09:49:51;22.70;1.00
5962;DHT22;3007;50.770;0.250;2022-08-20T09:52:21;22.70;1.00
5962;DHT22;3007;50.770;0.250;2022-08-20T09:54:55;22.80;1.00
5962;DHT22;3007;50.770;0.250;2022-08-20T09:57:24;22.80;1.00
5962;DHT22;3007;50.770;0.250;2022-08-20T09:59:53;22.90;1.00
5962;DHT22;3007;50.770;0.250;2022-08-20T10:02:21;23.00;1.00
5962;DHT22;3007;50.770;0.250;2022-08-20T10:04:48;23.10;1.00
5962;DHT22;3007;50.770;0.250;2022-08-20T10:07:15;23.10;1.00
5962;DHT22;3007;50.770;0.250;2022-08-20T10:09:42;23.00;1.00
5962;DHT22;3007;50.770;0.250;2022-08-20T10:12:11;22.80;1.00
5962;DHT22;3007;50.770;0.250;2022-08-20T10:14:38;22.70;1.00
5962;DHT22;3007;50.770;0.250;2022-08-20T10:17:04;22.50;1.00
5962;DHT22;3007;50.770;0.250;2022-08-20T10:19:32;22.40;1.00
5962;DHT22;3007;50.770;0.250;2022-08-20T10:21:59;22.30;1.00
5962;DHT22;3007;50.770;0.250;2022-08-20T10:24:26;22.30;1.00
5962;DHT22;3007;50.770;0.250;2022-08-20T10:26:54;22.30;1.00
5962;DHT22;3007;50.770;0.250;2022-08-20T10:29:25;22.30;1.00
5962;DHT22;3007;50.770;0.250;2022-08-20T10:31:52;22.20;1.00
5962;DHT22;3007;50.770;0.250;2022-08-20T10:34:19;22.20;1.00
5962;DHT22;3007;50.770;0.250;2022-08-20T10:36:46;22.20;1.00
5962;DHT22;3007;50.770;0.250;2022-08-20T10:39:14;22.20;1.00
5962;DHT22;3007;50.770;0.250;2022-08-20T10:41:44;22.20;1.00
5962;DHT22;3007;50.770;0.250;2022-08-20T10:44:16;22.10;1.00
5962;DHT22;3007;50.770;0.250;2022-08-20T10:46:46;22.10;1.00
5962;DHT22;3007;50.770;0.250;2022-08-20T10:49:13;22.00;1.00
5962;DHT22;3007;50.770;0.250;2022-08-20T10:51:49;22.00;1.00
5962;DHT22;3007;50.770;0.250;2022-08-20T10:54:18;22.00;1.00
5962;DHT22;3007;50.770;0.250;2022-08-20T10:56:45;22.00;1.00
5962;DHT22;3007;50.770;0.250;2022-08-20T10:59:15;22.10;1.00
5962;DHT22;3007;50.770;0.250;2022-08-20T11:01:42;22.10;1.00
5962;DHT22;3007;50.770;0.250;2022-08-20T11:04:10;22.10;1.00
5962;DHT22;3007;50.770;0.250;2022-08-20T11:06:37;22.10;1.00
5962;DHT22;3007;50.770;0.250;2022-08-20T11:09:04;22.10;1.00
5962;DHT22;3007;50.770;0.250;2022-08-20T11:11:31;22.10;1.00
5962;DHT22;3007;50.770;0.250;2022-08-20T11:13:57;22.10;1.00
5962;DHT22;3007;50.770;0.250;2022-08-20T11:16:24;22.10;1.00
5962;DHT22;3007;50.770;0.250;2022-08-20T11:18:51;22.20;1.00
5962;DHT22;3007;50.770;0.250;2022-08-20T11:21:20;22.20;1.00
5962;DHT22;3007;50.770;0.250;2022-08-20T11:23:46;22.20;1.00
5962;DHT22;3007;50.770;0.250;2022-08-20T11:26:20;22.20;1.00
5962;DHT22;3007;50.770;0.250;2022-08-20T11:28:47;22.40;1.00
5962;DHT22;3007;50.770;0.250;2022-08-20T11:31:14;22.50;1.00
5962;DHT22;3007;50.770;0.250;2022-08-20T11:33:41;22.50;1.00
5962;DHT22;3007;50.770;0.250;2022-08-20T11:36:08;22.60;1.00
5962;DHT22;3007;50.770;0.250;2022-08-20T11:38:36;22.60;1.00
5962;DHT22;3007;50.770;0.250;2022-08-20T11:41:03;22.70;1.00
5962;DHT22;3007;50.770;0.250;2022-08-20T11:43:30;22.80;1.00
5962;DHT22;3007;50.770;0.250;2022-08-20T11:45:57;22.90;1.00
5962;DHT22;3007;50.770;0.250;2022-08-20T11:48:24;22.90;1.00
5962;DHT22;3007;50.770;0.250;2022-08-20T11:50:51;23.00;1.00
5962;DHT22;3007;50.770;0.250;2022-08-20T11:53:18;23.10;1.00
5962;DHT22;3007;50.770;0.250;2022-08-20T11:55:46;23.30;1.00
5962;DHT22;3007;50.770;0.250;2022-08-20T11:58:14;23.40;1.00
5962;DHT22;3007;50.770;0.250;2022-08-20T12:00:41;23.40;1.00
5962;DHT22;3007;50.770;0.250;2022-08-20T12:03:08;23.20;1.00
5962;DHT22;3007;50.770;0.250;2022-08-20T12:05:36;23.10;1.00
5962;DHT22;3007;50.770;0.250;2022-08-20T12:08:03;23.00;1.00
5962;DHT22;3007;50.770;0.250;2022-08-20T12:10:31;22.80;1.00
5962;DHT22;3007;50.770;0.250;2022-08-20T12:12:59;22.70;1.00
5962;DHT22;3007;50.770;0.250;2022-08-20T12:15:26;22.60;1.00
5962;DHT22;3007;50.770;0.250;2022-08-20T12:17:54;22.50;1.00
5962;DHT22;3007;50.770;0.250;2022-08-20T12:20:21;22.40;1.00
5962;DHT22;3007;50.770;0.250;2022-08-20T12:22:49;22.20;1.00
5962;DHT22;3007;50.770;0.250;2022-08-20T12:25:16;22.10;1.00
5962;DHT22;3007;50.770;0.250;2022-08-20T12:27:43;22.00;1.00
5962;DHT22;3007;50.770;0.250;2022-08-20T12:30:14;22.00;1.00
5962;DHT22;3007;50.770;0.250;2022-08-20T12:32:42;22.00;1.00
5962;DHT22;3007;50.770;0.250;2022-08-20T12:35:11;22.00;1.00
5962;DHT22;3007;50.770;0.250;2022-08-20T12:37:39;22.00;1.00
5962;DHT22;3007;50.770;0.250;2022-08-20T12:40:09;22.00;1.00
5962;DHT22;3007;50.770;0.250;2022-08-20T12:42:40;22.00;1.00
5962;DHT22;3007;50.770;0.250;2022-08-20T12:45:11;21.90;1.00
5962;DHT22;3007;50.770;0.250;2022-08-20T12:47:40;21.90;1.00
5962;DHT22;3007;50.770;0.250;2022-08-20T12:50:09;21.80;1.00
5962;DHT22;3007;50.770;0.250;2022-08-20T12:52:36;21.80;1.00
5962;DHT22;3007;50.770;0.250;2022-08-20T12:55:05;21.90;1.00
5962;DHT22;3007;50.770;0.250;2022-08-20T12:57:35;21.90;1.00
5962;DHT22;3007;50.770;0.250;2022-08-20T13:00:06;22.00;1.00
5962;DHT22;3007;50.770;0.250;2022-08-20T13:02:37;22.00;1.00
5962;DHT22;3007;50.770;0.250;2022-08-20T13:05:06;21.90;1.00
5962;DHT22;3007;50.770;0.250;2022-08-20T13:07:34;21.80;1.00
5962;DHT22;3007;50.770;0.250;2022-08-20T13:10:02;21.80;1.00
5962;DHT22;3007;50.770;0.250;2022-08-20T13:12:29;21.80;1.00
5962;DHT22;3007;50.770;0.250;2022-08-20T13:14:56;21.80;1.00
5962;DHT22;3007;50.770;0.250;2022-08-20T13:17:23;21.80;1.00
5962;DHT22;3007;50.770;0.250;2022-08-20T13:19:51;21.80;1.00
5962;DHT22;3007;50.770;0.250;2022-08-20T13:22:18;21.80;1.00
5962;DHT22;3007;50.770;0.250;2022-08-20T13:24:45;21.70;1.00
5962;DHT22;3007;50.770;0.250;2022-08-20T13:27:14;21.60;1.00
5962;DHT22;3007;50.770;0.250;2022-08-20T13:29:45;21.60;1.00
5962;DHT22;3007;50.770;0.250;2022-08-20T13:32:13;21.60;1.00
5962;DHT22;3007;50.770;0.250;2022-08-20T13:34:40;21.50;1.00
5962;DHT22;3007;50.770;0.250;2022-08-20T13:37:12;21.50;1.00
5962;DHT22;3007;50.770;0.250;2022-08-20T13:39:39;21.50;6.40
5962;DHT22;3007;50.770;0.250;2022-08-20T13:42:07;21.50;11.10
5962;DHT22;3007;50.770;0.250;2022-08-20T13:44:34;21.50;10.80
5962;DHT22;3007;50.770;0.250;2022-08-20T13:47:12;21.40;16.80
5962;DHT22;3007;50.770;0.250;2022-08-20T13:49:40;21.40;19.70
5962;DHT22;3007;50.770;0.250;2022-08-20T13:52:07;21.40;16.60
5962;DHT22;3007;50.770;0.250;2022-08-20T13:54:35;21.40;10.80
5962;DHT22;3007;50.770;0.250;2022-08-20T13:57:04;21.40;2.50
5962;DHT22;3007;50.770;0.250;2022-08-20T13:59:34;21.30;15.00
5962;DHT22;3007;50.770;0.250;2022-08-20T14:02:05;21.40;10.70
5962;DHT22;3007;50.770;0.250;2022-08-20T14:04:34;21.30;18.30
5962;DHT22;3007;50.770;0.250;2022-08-20T14:07:13;21.20;17.90
5962;DHT22;3007;50.770;0.250;2022-08-20T14:09:43;21.20;52.00
5962;DHT22;3007;50.770;0.250;2022-08-20T14:12:11;21.20;46.60
5962;DHT22;3007;50.770;0.250;2022-08-20T14:14:38;21.20;49.90
5962;DHT22;3007;50.770;0.250;2022-08-20T14:17:14;21.20;42.00
5962;DHT22;3007;50.770;0.250;2022-08-20T14:19:41;21.20;48.40
5962;DHT22;3007;50.770;0.250;2022-08-20T14:22:08;21.20;41.50
5962;DHT22;3007;50.770;0.250;2022-08-20T14:24:35;21.30;39.40
5962;DHT22;3007;50.770;0.250;2022-08-20T14:27:04;21.20;48.10
5962;DHT22;3007;50.770;0.250;2022-08-20T14:29:31;21.20;57.00
5962;DHT22;3007;50.770;0.250;2022-08-20T14:31:59;21.20;51.10
5962;DHT22;3007;50.770;0.250;2022-08-20T14:34:26;21.20;53.70
5962;DHT22;3007;50.770;0.250;2022-08-20T14:36:52;21.20;66.10
5962;DHT22;3007;50.770;0.250;2022-08-20T14:39:22;21.20;50.20
5962;DHT22;3007;50.770;0.250;2022-08-20T14:41:49;21.20;34.60
5962;DHT22;3007;50.770;0.250;2022-08-20T14:44:17;21.10;45.00
5962;DHT22;3007;50.770;0.250;2022-08-20T14:46:44;21.10;49.50
5962;DHT22;3007;50.770;0.250;2022-08-20T14:49:11;21.10;50.20
5962;DHT22;3007;50.770;0.250;2022-08-20T14:51:37;21.10;49.50
5962;DHT22;3007;50.770;0.250;2022-08-20T14:54:04;21.00;59.00
5962;DHT22;3007;50.770;0.250;2022-08-20T14:56:31;21.00;67.80
5962;DHT22;3007;50.770;0.250;2022-08-20T14:58:58;21.00;65.10
5962;DHT22;3007;50.770;0.250;2022-08-20T15:01:26;21.00;80.10
5962;DHT22;3007;50.770;0.250;2022-08-20T15:03:53;21.10;90.60
5962;DHT22;3007;50.770;0.250;2022-08-20T15:06:20;21.10;80.80
5962;DHT22;3007;50.770;0.250;2022-08-20T15:08:47;21.10;88.80
5962;DHT22;3007;50.770;0.250;2022-08-20T15:11:14;21.10;84.20
5962;DHT22;3007;50.770;0.250;2022-08-20T15:13:41;21.10;87.20
5962;DHT22;3007;50.770;0.250;2022-08-20T15:16:08;21.10;90.00
5962;DHT22;3007;50.770;0.250;2022-08-20T15:18:36;21.10;91.10
5962;DHT22;3007;50.770;0.250;2022-08-20T15:21:03;21.00;91.20
5962;DHT22;3007;50.770;0.250;2022-08-20T15:23:30;21.00;90.80
5962;DHT22;3007;50.770;0.250;2022-08-20T15:25:57;20.90;94.80
5962;DHT22;3007;50.770;0.250;2022-08-20T15:28:24;20.90;99.90
5962;DHT22;3007;50.770;0.250;2022-08-20T15:30:51;20.90;99.90
5962;DHT22;3007;50.770;0.250;2022-08-20T15:33:18;20.80;91.90
5962;DHT22;3007;50.770;0.250;2022-08-20T15:35:46;20.80;79.30
5962;DHT22;3007;50.770;0.250;2022-08-20T15:38:13;20.70;91.00
5962;DHT22;3007;50.770;0.250;2022-08-20T15:40:40;20.70;97.50
5962;DHT22;3007;50.770;0.250;2022-08-20T15:43:07;20.70;99.90
5962;DHT22;3007;50.770;0.250;2022-08-20T15:45:35;20.70;99.90
5962;DHT22;3007;50.770;0.250;2022-08-20T15:48:08;20.70;99.90
5962;DHT22;3007;50.770;0.250;2022-08-20T15:50:52;20.60;99.90
5962;DHT22;3007;50.770;0.250;2022-08-20T15:53:25;20.60;99.90
5962;DHT22;3007;50.770;0.250;2022-08-20T15:55:58;20.60;99.90
5962;DHT22;3007;50.770;0.250;2022-08-20T15:58:32;20.60;99.90
5962;DHT22;3007;50.770;0.250;2022-08-20T16:01:06;20.60;99.90
5962;DHT22;3007;50.770;0.250;2022-08-20T16:03:56;20.50;99.90
5962;DHT22;3007;50.770;0.250;2022-08-20T16:06:29;20.50;99.90
5962;DHT22;3007;50.770;0.250;2022-08-20T16:09:07;20.50;99.90
5962;DHT22;3007;50.770;0.250;2022-08-20T16:11:48;20.50;99.90
5962;DHT22;3007;50.770;0.250;2022-08-20T16:14:20;20.50;99.90
5962;DHT22;3007;50.770;0.250;2022-08-20T16:16:49;20.50;99.90
5962;DHT22;3007;50.770;0.250;2022-08-20T16:19:21;20.40;99.90